createdAt,value
2018-07-21T00:00:05.439Z,72.50
2018-07-21T00:02:37.022Z,77.30
2018-07-21T00:05:07.845Z,90.23
2018-07-21T00:07:39.483Z,69.47
2018-07-21T00:10:12.547Z,80.10
2018-07-21T00:12:44.498Z,61.67
2018-07-21T00:15:16.443Z,85.80
2018-07-21T00:17:47.334Z,73.77
2018-07-21T00:20:19.495Z,77.73
2018-07-21T00:22:51.265Z,76.83
2018-07-21T00:25:23.286Z,67.43
2018-07-21T00:27:55.094Z,82.23
2018-07-21T00:30:26.927Z,65.13
2018-07-21T00:32:58.451Z,72.37
2018-07-21T00:35:29.455Z,67.33
2018-07-21T00:38:01.348Z,68.13
2018-07-21T00:40:33.277Z,66.10
2018-07-21T00:43:04.818Z,81.20
2018-07-21T00:45:36.886Z,66.10
2018-07-21T00:48:08.769Z,68.43
2018-07-21T00:50:40.675Z,77.50
2018-07-21T00:53:12.335Z,71.40
2018-07-21T00:55:44.074Z,97.80
2018-07-21T00:58:15.746Z,73.73
2018-07-21T01:00:47.419Z,85.23
2018-07-21T01:03:18.981Z,66.30
2018-07-21T01:05:50.830Z,73.57
2018-07-21T01:08:22.386Z,71.10
2018-07-21T01:10:55.547Z,75.57
2018-07-21T01:13:26.998Z,66.23
2018-07-21T01:15:58.880Z,71.90
2018-07-21T01:18:30.619Z,66.37
2018-07-21T01:21:02.462Z,79.73
2018-07-21T01:23:34.081Z,71.03
2018-07-21T01:26:06.367Z,81.63
2018-07-21T01:28:37.954Z,62.93
2018-07-21T01:31:10.154Z,66.17
2018-07-21T01:33:41.899Z,85.97
2018-07-21T01:36:14.136Z,67.73
2018-07-21T01:38:45.643Z,61.53
2018-07-21T01:41:17.499Z,79.83
2018-07-21T01:43:49.143Z,77.63
2018-07-21T01:46:21.262Z,72.70
2018-07-21T01:48:53.089Z,59.17
2018-07-21T01:51:24.707Z,74.20
2018-07-21T01:53:56.178Z,73.60
2018-07-21T01:56:28.094Z,62.07
2018-07-21T01:59:00.015Z,70.13
2018-07-21T02:01:32.526Z,64.60
2018-07-21T02:04:04.119Z,76.37
2018-07-21T02:06:35.727Z,67.50
2018-07-21T02:09:10.758Z,78.50
2018-07-21T02:11:43.815Z,83.63
2018-07-21T02:14:15.742Z,60.70
2018-07-21T02:16:47.722Z,65.70
2018-07-21T02:19:19.720Z,89.23
2018-07-21T02:21:51.506Z,65.13
2018-07-21T02:24:23.067Z,75.33
2018-07-21T02:26:55.110Z,72.30
2018-07-21T02:29:26.714Z,95.67
2018-07-21T02:31:58.366Z,65.93
2018-07-21T02:34:29.855Z,76.90
2018-07-21T02:37:01.584Z,77.10
2018-07-21T02:39:33.339Z,65.47
2018-07-21T02:42:05.235Z,85.43
2018-07-21T02:44:36.751Z,72.20
2018-07-21T02:47:08.673Z,72.23
2018-07-21T02:49:40.404Z,75.23
2018-07-21T02:52:12.688Z,72.00
2018-07-21T02:54:43.531Z,78.17
2018-07-21T02:57:15.331Z,89.87
2018-07-21T02:59:47.042Z,85.53
2018-07-21T03:02:18.945Z,85.93
2018-07-21T03:04:50.463Z,90.50
2018-07-21T03:07:22.149Z,79.83
2018-07-21T03:09:54.024Z,92.50
2018-07-21T03:12:26.527Z,88.17
2018-07-21T03:14:58.450Z,85.80
2018-07-21T03:17:30.784Z,92.63
2018-07-21T03:20:01.733Z,100.23
2018-07-21T03:22:33.711Z,80.67
2018-07-21T03:25:05.312Z,84.17
2018-07-21T03:27:37.974Z,90.97
2018-07-21T03:30:09.691Z,93.27
2018-07-21T03:32:41.776Z,105.07
2018-07-21T03:35:13.515Z,92.60
2018-07-21T03:37:45.387Z,95.67
2018-07-21T03:40:16.834Z,93.93
2018-07-21T03:42:48.614Z,107.60
2018-07-21T03:45:20.250Z,105.37
2018-07-21T03:47:52.243Z,100.27
2018-07-21T03:50:23.825Z,99.20
2018-07-21T03:52:55.519Z,99.67
2018-07-21T03:55:27.171Z,104.43
2018-07-21T03:57:59.018Z,93.23
2018-07-21T04:00:30.508Z,96.50
2018-07-21T04:03:02.412Z,89.83
2018-07-21T04:05:34.136Z,104.30
2018-07-21T04:08:06.173Z,81.17
2018-07-21T04:10:37.674Z,94.03
2018-07-21T04:13:11.058Z,81.47
2018-07-21T04:15:42.831Z,93.00
2018-07-21T04:18:14.627Z,85.27
2018-07-21T04:20:46.200Z,91.30
2018-07-21T04:23:17.956Z,76.73
2018-07-21T04:25:49.498Z,88.47
2018-07-21T04:28:22.027Z,81.30
2018-07-21T04:30:53.693Z,89.67
2018-07-21T04:33:25.785Z,81.13
2018-07-21T04:35:57.372Z,73.37
2018-07-21T04:38:29.230Z,88.57
2018-07-21T04:41:00.973Z,96.70
2018-07-21T04:43:32.627Z,83.00
2018-07-21T04:46:04.867Z,78.90
2018-07-21T04:48:36.649Z,83.57
2018-07-21T04:51:08.499Z,77.07
2018-07-21T04:53:40.518Z,79.37
2018-07-21T04:56:12.430Z,98.53
2018-07-21T04:58:44.446Z,84.03
2018-07-21T05:01:17.986Z,89.87
2018-07-21T05:03:49.752Z,116.80
2018-07-21T05:06:21.848Z,66.80
2018-07-21T05:08:53.863Z,106.97
2018-07-21T05:11:25.495Z,95.97
2018-07-21T05:13:57.117Z,98.12
2018-07-21T05:16:28.864Z,84.20
2018-07-21T05:19:00.743Z,99.72
2018-07-21T05:21:32.775Z,83.07
2018-07-21T05:24:04.151Z,95.07
2018-07-21T05:26:36.487Z,100.62
2018-07-21T05:29:08.544Z,81.50
2018-07-21T05:31:40.254Z,89.30
2018-07-21T05:34:12.418Z,99.80
2018-07-21T05:36:44.220Z,99.75
2018-07-21T05:39:15.256Z,71.70
2018-07-21T05:41:46.894Z,86.60
2018-07-21T05:44:18.417Z,76.15
2018-07-21T05:46:50.472Z,56.58
2018-07-21T05:49:21.470Z,87.33
2018-07-21T05:51:52.918Z,78.95
2018-07-21T05:54:24.775Z,67.45
2018-07-21T05:56:56.451Z,64.35
2018-07-21T05:59:27.363Z,85.40
2018-07-21T06:01:59.164Z,74.35
2018-07-21T06:04:31.010Z,68.90
2018-07-21T06:07:01.929Z,71.67
2018-07-21T06:09:32.840Z,76.17
2018-07-21T06:12:04.668Z,61.00
2018-07-21T06:14:37.687Z,86.20
2018-07-21T06:17:09.288Z,76.65
2018-07-21T06:19:40.360Z,65.05
2018-07-21T06:22:12.207Z,67.30
2018-07-21T06:24:44.551Z,66.82
2018-07-21T06:27:16.071Z,82.20
2018-07-21T06:29:48.100Z,79.32
2018-07-21T06:32:19.906Z,58.95
2018-07-21T06:34:51.720Z,69.62
2018-07-21T06:37:22.596Z,71.22
2018-07-21T06:39:54.409Z,65.60
2018-07-21T06:42:26.083Z,60.43
2018-07-21T06:44:58.247Z,67.70
2018-07-21T06:47:29.810Z,66.62
2018-07-21T06:50:01.741Z,78.52
2018-07-21T06:52:33.109Z,60.30
2018-07-21T06:55:05.124Z,78.33
2018-07-21T06:57:36.564Z,62.58
2018-07-21T07:00:08.531Z,72.78
2018-07-21T07:02:40.775Z,89.87
2018-07-21T07:05:12.653Z,75.90
2018-07-21T07:07:44.439Z,79.15
2018-07-21T07:10:16.626Z,89.70
2018-07-21T07:12:48.307Z,87.72
2018-07-21T07:15:19.630Z,93.40
2018-07-21T07:17:51.417Z,65.08
2018-07-21T07:20:22.634Z,76.62
2018-07-21T07:22:54.252Z,63.95
2018-07-21T07:25:26.186Z,75.67
2018-07-21T07:27:57.052Z,78.22
2018-07-21T07:30:28.147Z,79.15
2018-07-21T07:32:59.688Z,77.53
2018-07-21T07:35:31.690Z,80.83
2018-07-21T07:38:02.422Z,62.50
2018-07-21T07:40:35.519Z,61.40
2018-07-21T07:43:07.679Z,60.52
2018-07-21T07:45:39.433Z,70.47
2018-07-21T07:48:11.292Z,70.45
2018-07-21T07:50:42.449Z,68.95
2018-07-21T07:53:14.118Z,70.62
2018-07-21T07:55:46.030Z,60.12
2018-07-21T07:58:17.516Z,65.80
2018-07-21T08:00:49.342Z,70.17
2018-07-21T08:03:20.951Z,62.85
2018-07-21T08:05:52.842Z,61.33
2018-07-21T08:08:24.727Z,61.48
2018-07-21T08:10:55.839Z,56.83
2018-07-21T08:13:27.610Z,53.52
2018-07-21T08:15:59.838Z,67.37
2018-07-21T08:18:30.575Z,55.03
2018-07-21T08:21:01.422Z,54.30
2018-07-21T08:23:33.120Z,51.20
2018-07-21T08:26:04.958Z,62.57
2018-07-21T08:28:36.754Z,54.53
2018-07-21T08:31:07.873Z,49.10
2018-07-21T08:33:39.536Z,55.35
2018-07-21T08:36:11.626Z,55.70
2018-07-21T08:38:43.416Z,56.45
2018-07-21T08:41:14.425Z,54.00
2018-07-21T08:43:46.180Z,58.73
2018-07-21T08:46:18.438Z,53.50
2018-07-21T08:48:50.230Z,58.28
2018-07-21T08:51:21.896Z,67.60
2018-07-21T08:53:53.491Z,64.03
2018-07-21T08:56:25.370Z,60.48
2018-07-21T08:58:57.086Z,49.03
2018-07-21T09:01:28.831Z,46.02
2018-07-21T09:04:00.390Z,47.88
2018-07-21T09:06:32.215Z,69.00
2018-07-21T09:09:04.519Z,60.60
2018-07-21T09:11:36.682Z,47.03
2018-07-21T09:14:08.364Z,54.90
2018-07-21T09:16:42.026Z,72.20
2018-07-21T09:19:12.626Z,58.58
2018-07-21T09:21:44.769Z,45.90
2018-07-21T09:24:16.477Z,63.95
2018-07-21T09:26:48.180Z,61.92
2018-07-21T09:29:19.834Z,48.45
2018-07-21T09:31:51.866Z,66.22
2018-07-21T09:34:23.571Z,53.90
2018-07-21T09:36:55.374Z,65.90
2018-07-21T09:39:26.982Z,64.23
2018-07-21T09:41:58.831Z,42.88
2018-07-21T09:44:29.570Z,44.27
2018-07-21T09:47:01.411Z,50.23
2018-07-21T09:49:33.221Z,58.23
2018-07-21T09:52:05.371Z,49.00
2018-07-21T09:54:36.781Z,54.50
2018-07-21T09:57:08.650Z,52.43
2018-07-21T09:59:40.373Z,52.90
2018-07-21T10:02:12.546Z,56.08
2018-07-21T10:04:44.213Z,55.75
2018-07-21T10:07:15.980Z,55.83
2018-07-21T10:09:46.506Z,41.75
2018-07-21T10:12:18.343Z,56.67
2018-07-21T10:14:49.979Z,55.57
2018-07-21T10:17:23.002Z,42.38
2018-07-21T10:19:54.491Z,47.25
2018-07-21T10:22:26.578Z,62.13
2018-07-21T10:25:02.796Z,43.63
2018-07-21T10:27:39.114Z,47.03
2018-07-21T10:30:10.777Z,38.33
2018-07-21T10:32:42.823Z,57.23
2018-07-21T10:35:14.550Z,38.55
2018-07-21T10:37:46.543Z,52.10
2018-07-21T10:40:18.305Z,45.37
2018-07-21T10:42:49.265Z,41.33
2018-07-21T10:45:21.154Z,48.33
2018-07-21T10:47:53.134Z,53.73
2018-07-21T10:50:24.781Z,48.23
2018-07-21T10:52:56.336Z,40.80
2018-07-21T10:55:27.929Z,49.87
2018-07-21T10:57:59.820Z,46.80
2018-07-21T11:00:31.271Z,46.43
2018-07-21T11:03:03.059Z,53.67
2018-07-21T11:05:34.702Z,47.03
2018-07-21T11:08:07.425Z,42.90
2018-07-21T11:10:39.126Z,53.93
2018-07-21T11:13:11.143Z,61.30
2018-07-21T11:15:43.126Z,58.30
2018-07-21T11:18:15.939Z,54.20
2018-07-21T11:20:47.469Z,48.73
2018-07-21T11:23:19.704Z,45.47
2018-07-21T11:25:51.633Z,40.47
2018-07-21T11:28:24.058Z,54.43
2018-07-21T11:30:55.804Z,63.67
2018-07-21T11:33:27.877Z,49.70
2018-07-21T11:35:59.993Z,53.37
2018-07-21T11:38:31.502Z,57.43
2018-07-21T11:41:03.172Z,59.87
2018-07-21T11:43:34.909Z,60.43
2018-07-21T11:46:06.633Z,55.23
2018-07-21T11:48:38.724Z,44.20
2018-07-21T11:51:10.258Z,58.70
2018-07-21T11:53:42.098Z,56.37
2018-07-21T11:56:14.127Z,55.80
2018-07-21T11:58:45.944Z,56.90
2018-07-21T12:01:17.798Z,54.47
2018-07-21T12:03:49.874Z,44.07
2018-07-21T12:06:21.579Z,57.67
2018-07-21T12:08:53.420Z,53.90
2018-07-21T12:11:25.728Z,40.77
2018-07-21T12:13:57.567Z,41.40
2018-07-21T12:16:28.134Z,40.27
2018-07-21T12:19:02.213Z,47.57
2018-07-21T12:21:33.219Z,40.37
2018-07-21T12:24:04.983Z,60.53
2018-07-21T12:26:36.562Z,54.80
2018-07-21T12:29:07.470Z,55.03
2018-07-21T12:31:39.176Z,45.23
2018-07-21T12:34:10.891Z,63.83
2018-07-21T12:36:42.684Z,51.63
2018-07-21T12:39:14.866Z,47.07
2018-07-21T12:41:46.547Z,60.07
2018-07-21T12:44:18.283Z,57.97
2018-07-21T12:46:50.068Z,47.13
2018-07-21T12:49:22.546Z,54.80
2018-07-21T12:51:54.104Z,52.50
2018-07-21T12:54:26.285Z,49.57
2018-07-21T12:56:57.884Z,48.17
2018-07-21T12:59:29.751Z,56.13
2018-07-21T13:02:00.506Z,40.40
2018-07-21T13:04:32.356Z,47.67
2018-07-21T13:07:04.335Z,69.00
2018-07-21T13:09:36.376Z,56.90
2018-07-21T13:12:07.873Z,50.90
2018-07-21T13:14:39.738Z,59.97
2018-07-21T13:17:11.427Z,58.07
2018-07-21T13:19:44.569Z,51.97
2018-07-21T13:22:17.207Z,50.67
2018-07-21T13:24:49.336Z,42.40
2018-07-21T13:27:21.081Z,43.60
2018-07-21T13:29:54.353Z,46.10
2018-07-21T13:32:25.258Z,47.97
2018-07-21T13:34:57.406Z,52.83
2018-07-21T13:37:29.593Z,45.40
2018-07-21T13:40:01.646Z,52.53
2018-07-21T13:42:33.482Z,51.53
2018-07-21T13:45:05.659Z,50.27
2018-07-21T13:47:37.130Z,44.83
2018-07-21T13:50:08.978Z,47.20
2018-07-21T13:52:40.476Z,51.37
2018-07-21T13:55:12.506Z,51.63
2018-07-21T13:57:43.901Z,57.17
2018-07-21T14:00:15.712Z,61.93
2018-07-21T14:02:47.267Z,44.77
2018-07-21T14:05:19.291Z,45.27
2018-07-21T14:07:50.738Z,54.37
2018-07-21T14:10:21.770Z,53.33
2018-07-21T14:12:52.650Z,46.40
2018-07-21T14:15:24.793Z,51.47
2018-07-21T14:17:56.594Z,59.93
2018-07-21T14:20:29.373Z,54.90
2018-07-21T14:23:01.180Z,54.60
2018-07-21T14:25:33.165Z,51.87
2018-07-21T14:28:04.017Z,60.70
2018-07-21T14:30:34.884Z,54.63
2018-07-21T14:33:06.544Z,49.57
2018-07-21T14:35:38.351Z,65.33
2018-07-21T14:38:10.034Z,57.33
2018-07-21T14:40:41.736Z,41.47
2018-07-21T14:43:13.352Z,52.03
2018-07-21T14:45:45.447Z,55.57
2018-07-21T14:48:17.136Z,51.33
2018-07-21T14:50:48.722Z,44.17
2018-07-21T14:53:20.270Z,44.87
2018-07-21T14:55:52.187Z,52.97
2018-07-21T14:58:24.109Z,51.23
2018-07-21T15:00:55.159Z,62.13
2018-07-21T15:03:26.766Z,46.40
2018-07-21T15:05:58.650Z,44.90
2018-07-21T15:08:30.198Z,55.07
2018-07-21T15:11:02.015Z,51.77
2018-07-21T15:13:33.791Z,47.80
2018-07-21T15:16:05.737Z,49.90
2018-07-21T15:18:37.166Z,50.67
2018-07-21T15:21:10.636Z,48.10
2018-07-21T15:23:42.724Z,53.77
2018-07-21T15:26:14.535Z,45.47
2018-07-21T15:28:46.242Z,47.33
2018-07-21T15:31:18.384Z,54.67
2018-07-21T15:33:50.090Z,47.40
2018-07-21T15:36:22.064Z,47.00
2018-07-21T15:38:53.843Z,47.13
2018-07-21T15:41:25.509Z,49.17
2018-07-21T15:43:56.962Z,64.00
2018-07-21T15:46:28.747Z,57.23
2018-07-21T15:49:00.239Z,51.63
2018-07-21T15:51:32.058Z,60.07
2018-07-21T15:54:03.746Z,51.70
2018-07-21T15:56:35.700Z,63.80
2018-07-21T15:59:07.138Z,53.23
2018-07-21T16:01:37.799Z,61.87
2018-07-21T16:04:09.489Z,56.23
2018-07-21T16:06:41.614Z,48.20
2018-07-21T16:09:13.438Z,52.97
2018-07-21T16:11:45.490Z,60.67
2018-07-21T16:14:17.051Z,48.77
2018-07-21T16:16:48.715Z,48.63
2018-07-21T16:19:20.393Z,56.83
2018-07-21T16:21:53.646Z,53.30
2018-07-21T16:24:25.282Z,50.33
2018-07-21T16:26:57.062Z,43.80
2018-07-21T16:29:28.667Z,47.60
2018-07-21T16:31:59.474Z,51.23
2018-07-21T16:34:31.182Z,55.43
2018-07-21T16:37:03.287Z,54.97
2018-07-21T16:39:35.142Z,64.73
2018-07-21T16:42:07.058Z,74.10
2018-07-21T16:44:37.978Z,64.03
2018-07-21T16:47:10.084Z,55.10
2018-07-21T16:49:42.023Z,54.13
2018-07-21T16:52:13.003Z,69.73
2018-07-21T16:54:45.000Z,69.37
2018-07-21T16:57:16.803Z,68.97
2018-07-21T16:59:47.487Z,66.70
2018-07-21T17:02:19.398Z,59.97
2018-07-21T17:04:50.758Z,56.80
2018-07-21T17:07:22.483Z,69.20
2018-07-21T17:09:54.047Z,68.20
2018-07-21T17:12:25.979Z,60.43
2018-07-21T17:14:57.430Z,75.60
2018-07-21T17:17:29.609Z,81.67
2018-07-21T17:20:01.143Z,66.60
2018-07-21T17:22:33.933Z,70.00
2018-07-21T17:25:05.565Z,70.10
2018-07-21T17:27:37.662Z,62.17
2018-07-21T17:30:09.456Z,58.10
2018-07-21T17:32:41.957Z,66.80
2018-07-21T17:35:13.632Z,54.77
2018-07-21T17:37:45.362Z,49.30
2018-07-21T17:40:15.887Z,49.03
2018-07-21T17:42:47.963Z,47.10
2018-07-21T17:45:18.882Z,62.60
2018-07-21T17:47:49.657Z,54.53
2018-07-21T17:50:21.468Z,58.97
2018-07-21T17:52:53.250Z,49.53
2018-07-21T17:55:24.710Z,47.20
2018-07-21T17:57:56.409Z,48.73
2018-07-21T18:00:28.070Z,56.93
2018-07-21T18:02:59.850Z,50.77
2018-07-21T18:05:31.471Z,38.80
2018-07-21T18:08:03.879Z,62.00
2018-07-21T18:10:35.406Z,54.77
2018-07-21T18:13:07.310Z,56.77
2018-07-21T18:15:38.971Z,47.77
2018-07-21T18:18:10.679Z,63.00
2018-07-21T18:20:42.334Z,57.80
2018-07-21T18:23:15.623Z,52.77
2018-07-21T18:25:47.838Z,57.37
2018-07-21T18:28:19.474Z,58.30
2018-07-21T18:30:51.097Z,47.23
2018-07-21T18:33:22.993Z,56.00
2018-07-21T18:35:54.761Z,60.10
2018-07-21T18:38:25.683Z,60.43
2018-07-21T18:40:57.331Z,60.73
2018-07-21T18:43:29.352Z,57.13
2018-07-21T18:46:00.815Z,53.73
2018-07-21T18:48:31.697Z,60.70
2018-07-21T18:51:03.235Z,58.40
2018-07-21T18:53:35.239Z,54.27
2018-07-21T18:56:06.970Z,52.23
2018-07-21T18:58:38.820Z,63.30
2018-07-21T19:01:10.719Z,51.07
2018-07-21T19:03:42.291Z,66.57
2018-07-21T19:06:13.871Z,79.77
2018-07-21T19:08:50.622Z,71.23
2018-07-21T19:11:22.360Z,63.27
2018-07-21T19:13:54.317Z,65.67
2018-07-21T19:16:30.736Z,64.07
2018-07-21T19:19:02.516Z,68.17
2018-07-21T19:21:34.205Z,51.63
2018-07-21T19:24:07.242Z,60.03
2018-07-21T19:26:42.817Z,64.70
2018-07-21T19:29:13.957Z,61.03
2018-07-21T19:31:50.601Z,63.57
2018-07-21T19:34:22.547Z,69.27
2018-07-21T19:36:53.297Z,63.80
2018-07-21T19:39:25.274Z,56.87
2018-07-21T19:42:01.827Z,62.33
2018-07-21T19:44:33.809Z,72.53
2018-07-21T19:47:05.610Z,71.77
2018-07-21T19:49:38.455Z,58.73
2018-07-21T19:52:10.109Z,64.97
2018-07-21T19:54:41.113Z,65.83
2018-07-21T19:57:12.711Z,54.77
2018-07-21T19:59:45.533Z,69.50
2018-07-21T20:02:17.030Z,61.53
2018-07-21T20:04:48.813Z,63.10
2018-07-21T20:07:20.242Z,68.13
2018-07-21T20:09:52.306Z,54.57
2018-07-21T20:12:23.910Z,70.80
2018-07-21T20:14:56.238Z,64.33
2018-07-21T20:17:26.907Z,51.20
2018-07-21T20:19:58.890Z,60.33
2018-07-21T20:22:30.511Z,71.07
2018-07-21T20:25:03.320Z,58.43
2018-07-21T20:27:35.488Z,67.80
2018-07-21T20:30:07.783Z,66.73
2018-07-21T20:32:39.382Z,67.93
2018-07-21T20:35:11.216Z,62.13
2018-07-21T20:37:42.990Z,72.70
2018-07-21T20:40:14.574Z,58.30
2018-07-21T20:42:46.262Z,71.33
2018-07-21T20:45:17.975Z,62.30
2018-07-21T20:47:49.715Z,58.93
2018-07-21T20:50:20.694Z,73.53
2018-07-21T20:52:52.465Z,72.67
2018-07-21T20:55:24.287Z,62.50
2018-07-21T20:57:56.007Z,69.47
2018-07-21T21:00:28.546Z,70.23
2018-07-21T21:03:00.205Z,60.87
2018-07-21T21:05:32.594Z,75.03
2018-07-21T21:08:04.099Z,63.47
2018-07-21T21:10:36.167Z,80.57
2018-07-21T21:13:07.771Z,61.50
2018-07-21T21:15:39.710Z,73.07
2018-07-21T21:18:11.567Z,66.40
2018-07-21T21:20:42.581Z,70.37
2018-07-21T21:23:14.310Z,77.40
2018-07-21T21:25:47.546Z,85.73
2018-07-21T21:28:19.140Z,57.87
2018-07-21T21:30:51.083Z,67.03
2018-07-21T21:33:21.798Z,57.33
2018-07-21T21:35:53.962Z,67.43
2018-07-21T21:38:24.650Z,58.10
2018-07-21T21:40:56.425Z,68.10
2018-07-21T21:43:28.106Z,65.70
2018-07-21T21:45:59.022Z,50.83
2018-07-21T21:48:30.830Z,63.10
2018-07-21T21:51:02.778Z,55.80
2018-07-21T21:53:34.643Z,51.00
2018-07-21T21:56:06.402Z,66.27
2018-07-21T21:58:38.397Z,61.83
2018-07-21T22:01:12.259Z,70.83
2018-07-21T22:03:44.106Z,53.43
2018-07-21T22:06:16.402Z,69.07
2018-07-21T22:08:47.558Z,72.17
2018-07-21T22:11:19.335Z,61.33
2018-07-21T22:13:50.171Z,51.10
2018-07-21T22:16:21.344Z,64.30
2018-07-21T22:18:53.369Z,67.10
2018-07-21T22:21:26.094Z,61.93
2018-07-21T22:23:57.977Z,66.80
2018-07-21T22:26:31.189Z,62.03
2018-07-21T22:29:02.771Z,67.43
2018-07-21T22:31:34.930Z,66.97
2018-07-21T22:34:06.510Z,49.07
2018-07-21T22:36:38.627Z,68.50
2018-07-21T22:39:12.698Z,64.97
2018-07-21T22:41:44.538Z,65.77
2018-07-21T22:44:15.300Z,57.80
2018-07-21T22:46:47.091Z,51.43
2018-07-21T22:49:18.783Z,58.23
2018-07-21T22:51:50.395Z,63.70
2018-07-21T22:54:21.873Z,64.63
2018-07-21T22:56:53.835Z,51.30
2018-07-21T22:59:24.484Z,60.20
2018-07-21T23:01:55.546Z,72.13
2018-07-21T23:04:27.319Z,64.73
2018-07-21T23:06:59.303Z,54.97
2018-07-21T23:09:30.958Z,56.70
2018-07-21T23:12:03.054Z,68.03
2018-07-21T23:14:34.786Z,67.70
2018-07-21T23:17:06.676Z,60.30
2018-07-21T23:19:38.266Z,56.30
2018-07-21T23:22:10.302Z,71.73
2018-07-21T23:24:41.911Z,69.13
2018-07-21T23:27:14.613Z,63.83
2018-07-21T23:29:46.236Z,80.13
2018-07-21T23:32:18.222Z,63.10
2018-07-21T23:34:50.000Z,64.70
2018-07-21T23:37:21.959Z,66.70
2018-07-21T23:39:53.499Z,83.70
2018-07-21T23:42:25.444Z,75.23
2018-07-21T23:44:57.053Z,62.87
2018-07-21T23:47:27.894Z,68.20
2018-07-21T23:49:59.526Z,59.53
2018-07-21T23:52:31.499Z,71.97
2018-07-21T23:55:02.374Z,66.40
2018-07-21T23:57:34.246Z,73.97
